Terminal Aerodrome Forecast
Issued by NWS Wilmington, OH

Current Version | Previous Version | Graphics & Text | Print | Product List | Glossary On
Versions: 1 2 3 4 5 6 7 8 9 10 11 12 13 14 15 16 17 18 19 20 21 22 23 24
000
FTUS41 KILN 242057 AAA
TAFCVG
TAF AMD
KCVG 242057Z 2421/2524 07012KT P6SM SCT050 BKN100
     FM242300 09008KT P6SM BKN100
     FM250600 10004KT P6SM BKN050
     FM251000 09004KT P6SM BKN025
     FM251500 13008KT P6SM SCT050=

USA.gov is the U.S. government's official web portal to all federal, state and local government web resources and services.